createdAt,value
2023-03-17T00:00:08.060Z,67.95
2023-03-17T00:04:08.198Z,67.85
2023-03-17T00:08:08.349Z,68.42
2023-03-17T00:12:08.506Z,65.12
2023-03-17T00:16:08.685Z,66.55
2023-03-17T00:20:08.794Z,67.33
2023-03-17T00:24:08.937Z,65.75
2023-03-17T00:28:09.067Z,65.22
2023-03-17T00:32:09.233Z,65.38
2023-03-17T00:36:09.396Z,64.93
2023-03-17T00:40:09.570Z,64.04
2023-03-17T00:44:09.699Z,64.83
2023-03-17T00:48:09.895Z,63.57
2023-03-17T00:52:09.984Z,64.10
2023-03-17T00:56:10.159Z,62.12
2023-03-17T01:00:10.327Z,62.22
2023-03-17T01:04:10.475Z,59.38
2023-03-17T01:08:10.653Z,62.20
2023-03-17T01:12:10.828Z,61.78
2023-03-17T01:18:20.956Z,25.00
2023-03-17T01:22:20.885Z,28.79
2023-03-17T01:26:20.822Z,30.85
2023-03-17T01:30:20.786Z,27.09
2023-03-17T01:34:20.773Z,31.01
2023-03-17T01:38:20.724Z,29.82
2023-03-17T01:42:20.715Z,25.22
2023-03-17T01:46:20.716Z,31.56
2023-03-17T01:50:21.110Z,27.46
2023-03-17T01:54:20.618Z,28.02
2023-03-17T01:58:20.585Z,31.81
2023-03-17T02:02:20.582Z,30.65
2023-03-17T02:06:20.702Z,28.55
2023-03-17T02:10:20.853Z,26.80
2023-03-17T02:14:20.975Z,29.70
2023-03-17T02:18:21.116Z,28.41
2023-03-17T02:22:21.242Z,26.90
2023-03-17T02:26:21.358Z,31.07
2023-03-17T02:30:21.480Z,25.66
2023-03-17T02:34:21.609Z,29.19
2023-03-17T02:38:21.732Z,28.35
2023-03-17T02:42:21.862Z,30.88
2023-03-17T02:46:22.030Z,28.83
2023-03-17T02:50:22.141Z,28.52
2023-03-17T02:54:22.234Z,28.21
2023-03-17T02:58:22.384Z,31.40
2023-03-17T03:02:22.549Z,27.47
2023-03-17T03:06:22.628Z,29.89
2023-03-17T03:10:22.784Z,31.47
2023-03-17T03:14:22.916Z,27.89
2023-03-17T03:18:23.039Z,30.16
2023-03-17T03:22:23.172Z,29.69
2023-03-17T03:26:23.296Z,30.86
2023-03-17T03:30:23.448Z,31.85
2023-03-17T03:34:23.587Z,28.27
2023-03-17T03:38:23.711Z,26.97
2023-03-17T03:42:23.834Z,29.08
2023-03-17T03:46:24.008Z,26.63
2023-03-17T03:50:24.100Z,30.33
2023-03-17T03:54:24.264Z,29.65
2023-03-17T03:58:24.346Z,28.92
2023-03-17T04:02:24.539Z,26.81
2023-03-17T04:06:24.638Z,28.61
2023-03-17T04:10:24.714Z,29.67
2023-03-17T04:14:24.845Z,29.14
2023-03-17T04:18:24.973Z,30.53
2023-03-17T04:22:25.124Z,29.89
2023-03-17T04:26:25.213Z,28.65
2023-03-17T04:30:25.401Z,26.40
2023-03-17T04:34:25.497Z,32.62
2023-03-17T04:38:25.622Z,31.28
2023-03-17T04:42:25.738Z,32.18
2023-03-17T04:46:25.903Z,31.23
2023-03-17T04:50:26.012Z,26.28
2023-03-17T04:54:26.149Z,27.39
2023-03-17T04:58:30.874Z,25.34
2023-03-17T05:02:27.272Z,27.43
2023-03-17T05:06:26.231Z,30.96
2023-03-17T05:10:26.159Z,29.47
2023-03-17T05:14:26.299Z,27.39
2023-03-17T05:18:26.424Z,28.62
2023-03-17T05:22:26.616Z,29.60
2023-03-17T05:26:26.712Z,28.89
2023-03-17T05:30:26.848Z,29.47
2023-03-17T05:34:27.004Z,25.22
2023-03-17T05:38:27.122Z,28.44
2023-03-17T05:42:27.285Z,29.61
2023-03-17T05:46:27.549Z,29.21
2023-03-17T05:50:27.829Z,29.69
2023-03-17T05:54:27.638Z,26.89
2023-03-17T05:58:27.782Z,30.84
2023-03-17T06:02:27.962Z,29.84
2023-03-17T06:06:28.079Z,25.79
2023-03-17T06:10:28.237Z,27.00
2023-03-17T06:14:28.361Z,29.44
2023-03-17T06:18:28.482Z,30.22
2023-03-17T06:22:28.593Z,28.09
2023-03-17T06:26:28.714Z,29.27
2023-03-17T06:30:28.826Z,30.75
2023-03-17T06:34:28.925Z,27.94
2023-03-17T06:38:29.257Z,29.63
2023-03-17T06:42:29.248Z,29.31
2023-03-17T06:46:29.337Z,30.93
2023-03-17T06:50:29.761Z,30.49
2023-03-17T06:54:29.735Z,29.71
2023-03-17T06:58:29.732Z,29.17
2023-03-17T07:02:30.241Z,31.37
2023-03-17T07:06:29.861Z,27.20
2023-03-17T07:10:30.256Z,27.76
2023-03-17T07:14:30.077Z,31.04
2023-03-17T07:18:30.212Z,30.19
2023-03-17T07:22:30.311Z,31.02
2023-03-17T07:26:30.770Z,5.75
2023-03-17T07:30:30.622Z,24.98
2023-03-17T07:34:30.765Z,36.35
2023-03-17T07:38:30.854Z,76.54
2023-03-17T07:42:30.985Z,86.60
2023-03-17T07:46:31.391Z,83.44
2023-03-17T07:50:31.253Z,86.39
2023-03-17T07:54:31.764Z,106.57
2023-03-17T07:58:31.489Z,112.04
2023-03-17T08:02:31.884Z,139.95
2023-03-17T08:06:31.844Z,178.28
2023-03-17T08:10:32.675Z,203.20
2023-03-17T08:14:31.866Z,225.36
2023-03-17T08:18:31.809Z,250.00
2023-03-17T08:22:32.268Z,248.94
2023-03-17T08:26:31.832Z,237.68
2023-03-17T08:30:33.767Z,248.87
2023-03-17T08:34:31.835Z,250.00
2023-03-17T08:38:31.808Z,247.81
2023-03-17T08:42:31.771Z,247.01
2023-03-17T08:46:31.841Z,285.67
2023-03-17T08:50:32.065Z,226.59
2023-03-17T08:54:31.642Z,233.48
2023-03-17T08:58:31.787Z,235.66
2023-03-17T09:02:31.658Z,242.73
2023-03-17T09:06:31.562Z,248.72
2023-03-17T09:10:31.699Z,248.88
2023-03-17T09:14:40.082Z,248.63
2023-03-17T09:18:32.512Z,251.22
2023-03-17T09:22:31.463Z,250.00
2023-03-17T09:26:31.603Z,247.92
2023-03-17T09:30:32.713Z,247.78
2023-03-17T09:34:31.992Z,245.66
2023-03-17T09:38:32.275Z,245.74
2023-03-17T09:42:32.794Z,242.03
2023-03-17T09:46:32.557Z,238.98
2023-03-17T09:50:33.236Z,240.43
2023-03-17T09:54:32.819Z,235.79
2023-03-17T09:58:32.807Z,232.00
2023-03-17T10:02:32.376Z,212.86
2023-03-17T10:06:32.351Z,144.80
2023-03-17T10:10:32.766Z,89.26
2023-03-17T10:14:32.261Z,46.50
2023-03-17T10:18:32.250Z,30.61
2023-03-17T10:22:32.218Z,24.98
2023-03-17T10:26:32.308Z,27.73
2023-03-17T10:30:32.787Z,23.83
2023-03-17T10:34:32.838Z,20.70
2023-03-17T10:38:32.652Z,100.99
2023-03-17T10:42:33.296Z,107.83
2023-03-17T10:46:33.361Z,99.19
2023-03-17T10:50:33.778Z,108.56
2023-03-17T10:54:33.027Z,97.44
2023-03-17T10:58:33.094Z,113.82
2023-03-17T11:02:33.072Z,136.11
2023-03-17T11:06:33.310Z,209.55
2023-03-17T11:10:33.188Z,157.68
2023-03-17T11:14:32.950Z,154.85
2023-03-17T11:18:33.379Z,161.91
2023-03-17T11:22:32.885Z,165.86
2023-03-17T11:26:32.949Z,163.66
2023-03-17T11:30:33.269Z,167.13
2023-03-17T11:34:32.837Z,165.36
2023-03-17T11:38:32.834Z,165.26
2023-03-17T11:42:32.847Z,159.84
2023-03-17T11:46:32.689Z,158.96
2023-03-17T11:50:33.195Z,160.82
2023-03-17T11:54:32.839Z,177.79
2023-03-17T11:58:32.591Z,175.55
2023-03-17T12:02:32.610Z,184.00
2023-03-17T12:06:32.520Z,180.43
2023-03-17T12:10:32.893Z,184.19
2023-03-17T12:14:32.426Z,212.19
2023-03-17T12:18:32.450Z,196.40
2023-03-17T12:22:32.898Z,195.65
2023-03-17T12:26:33.336Z,181.26
2023-03-17T12:30:33.561Z,185.56
2023-03-17T12:34:33.342Z,180.77
2023-03-17T12:38:33.397Z,172.26
2023-03-17T12:42:33.422Z,158.54
2023-03-17T12:46:33.387Z,91.96
2023-03-17T12:50:33.322Z,60.50
2023-03-17T12:54:33.348Z,54.07
2023-03-17T12:58:33.220Z,60.48
2023-03-17T13:02:33.182Z,51.33
2023-03-17T13:06:33.133Z,83.23
2023-03-17T13:10:33.114Z,94.99
2023-03-17T13:14:33.320Z,93.73
2023-03-17T13:18:33.195Z,99.47
2023-03-17T13:22:33.050Z,100.13
2023-03-17T13:26:33.145Z,102.85
2023-03-17T13:30:33.379Z,110.64
2023-03-17T13:34:33.335Z,109.75
2023-03-17T13:38:33.408Z,100.53
2023-03-17T13:42:33.507Z,106.40
2023-03-17T13:46:33.613Z,107.83
2023-03-17T13:50:33.667Z,115.02
2023-03-17T13:54:33.661Z,112.58
2023-03-17T13:58:33.562Z,107.22
2023-03-17T14:02:33.614Z,112.90
2023-03-17T14:06:33.642Z,115.46
2023-03-17T14:10:33.655Z,122.04
2023-03-17T14:14:33.734Z,122.73
2023-03-17T14:18:33.703Z,128.15
2023-03-17T14:22:33.658Z,126.93
2023-03-17T14:26:33.641Z,125.72
2023-03-17T14:30:33.622Z,121.75
2023-03-17T14:34:33.613Z,124.06
2023-03-17T14:38:33.615Z,129.67
2023-03-17T14:42:33.658Z,136.23
2023-03-17T14:46:33.755Z,129.12
2023-03-17T14:50:33.887Z,132.89
2023-03-17T14:54:33.933Z,138.84
2023-03-17T14:58:33.824Z,137.69
2023-03-17T15:02:33.847Z,138.57
2023-03-17T15:06:35.194Z,142.20
2023-03-17T15:10:33.994Z,125.72
2023-03-17T15:14:33.695Z,121.79
2023-03-17T15:18:33.634Z,120.48
2023-03-17T15:22:33.635Z,130.08
2023-03-17T15:26:33.553Z,125.96
2023-03-17T15:30:46.277Z,130.71
2023-03-17T15:34:34.558Z,124.53
2023-03-17T15:38:33.481Z,124.46
2023-03-17T15:42:33.422Z,119.18
2023-03-17T15:46:33.712Z,121.58
2023-03-17T15:50:34.074Z,112.43
2023-03-17T15:54:33.869Z,117.92
2023-03-17T15:58:33.825Z,119.54
2023-03-17T16:02:33.782Z,129.66
2023-03-17T16:06:33.740Z,135.74
2023-03-17T16:10:34.009Z,138.10
2023-03-17T16:14:33.674Z,139.76
2023-03-17T16:18:33.665Z,139.39
2023-03-17T16:22:33.627Z,139.63
2023-03-17T16:26:33.603Z,140.43
2023-03-17T16:30:34.073Z,141.82
2023-03-17T16:34:33.500Z,141.34
2023-03-17T16:38:33.490Z,143.02
2023-03-17T16:42:33.445Z,142.42
2023-03-17T16:46:35.188Z,143.04
2023-03-17T16:50:33.814Z,144.09
2023-03-17T16:54:33.348Z,144.28
2023-03-17T16:58:33.458Z,144.17
2023-03-17T17:02:33.609Z,143.88
2023-03-17T17:06:33.765Z,145.52
2023-03-17T17:10:33.934Z,145.82
2023-03-17T17:14:34.094Z,146.01
2023-03-17T17:18:36.503Z,146.00
2023-03-17T17:22:34.225Z,147.97
2023-03-17T17:26:34.199Z,147.74
2023-03-17T17:30:34.448Z,146.28
2023-03-17T17:34:34.141Z,148.25
2023-03-17T17:38:34.120Z,146.72
2023-03-17T17:42:34.062Z,148.15
2023-03-17T17:46:34.087Z,146.93
2023-03-17T17:50:34.228Z,148.56
2023-03-17T17:54:34.181Z,147.40
2023-03-17T17:58:34.034Z,148.34
2023-03-17T18:02:34.023Z,148.69
2023-03-17T18:06:33.996Z,148.88
2023-03-17T18:10:34.531Z,148.62
2023-03-17T18:14:33.925Z,148.90
2023-03-17T18:18:33.871Z,147.29
2023-03-17T18:22:33.835Z,148.18
2023-03-17T18:26:33.841Z,149.53
2023-03-17T18:30:34.203Z,148.06
2023-03-17T18:34:33.813Z,150.49
2023-03-17T18:38:33.758Z,149.47
2023-03-17T18:42:33.774Z,149.12
2023-03-17T18:46:33.769Z,149.32
2023-03-17T18:50:33.919Z,150.43
2023-03-17T18:54:33.624Z,150.04
2023-03-17T18:58:33.591Z,149.28
2023-03-17T19:02:33.536Z,150.04
2023-03-17T19:06:33.511Z,150.00
2023-03-17T19:10:33.919Z,147.65
2023-03-17T19:14:33.590Z,147.87
2023-03-17T19:18:33.570Z,148.96
2023-03-17T19:22:33.519Z,149.77
2023-03-17T19:26:33.482Z,150.02
2023-03-17T19:30:33.852Z,150.74
2023-03-17T19:34:33.408Z,149.92
2023-03-17T19:38:33.372Z,149.86
2023-03-17T19:42:33.336Z,149.53
2023-03-17T19:46:33.324Z,148.80
2023-03-17T19:50:33.655Z,150.39
2023-03-17T19:54:33.463Z,148.44
2023-03-17T19:58:33.646Z,151.15
2023-03-17T20:02:33.854Z,149.44
2023-03-17T20:06:33.992Z,149.14
2023-03-17T20:10:34.162Z,150.43
2023-03-17T20:14:34.339Z,149.71
2023-03-17T20:18:34.513Z,148.32
2023-03-17T20:22:34.688Z,147.20
2023-03-17T20:26:34.803Z,148.07
2023-03-17T20:30:34.969Z,148.98
2023-03-17T20:34:35.047Z,148.51
2023-03-17T20:38:35.229Z,147.50
2023-03-17T20:42:35.429Z,148.71
2023-03-17T20:46:35.597Z,148.18
2023-03-17T20:50:35.720Z,148.36
2023-03-17T20:54:35.872Z,148.12
2023-03-17T20:58:36.019Z,146.44
2023-03-17T21:02:36.234Z,148.27
2023-03-17T21:06:36.373Z,147.19
2023-03-17T21:10:36.474Z,146.89
2023-03-17T21:14:36.549Z,147.58
2023-03-17T21:18:36.589Z,147.33
2023-03-17T21:22:36.690Z,146.85
2023-03-17T21:26:36.807Z,147.84
2023-03-17T21:30:36.904Z,148.55
2023-03-17T21:34:36.988Z,145.98
2023-03-17T21:38:37.080Z,146.60
2023-03-17T21:42:37.158Z,146.74
2023-03-17T21:46:37.258Z,145.74
2023-03-17T21:50:37.279Z,145.80
2023-03-17T21:54:37.362Z,147.08
2023-03-17T21:58:37.392Z,143.67
2023-03-17T22:02:37.407Z,144.91
2023-03-17T22:06:37.430Z,144.34
2023-03-17T22:10:37.378Z,145.70
2023-03-17T22:14:37.468Z,145.25
2023-03-17T22:18:37.420Z,142.01
2023-03-17T22:22:37.453Z,144.47
2023-03-17T22:26:37.396Z,146.32
2023-03-17T22:30:37.438Z,143.86
2023-03-17T22:34:37.436Z,144.98
2023-03-17T22:38:37.470Z,142.45
2023-03-17T22:42:37.508Z,143.59
2023-03-17T22:46:37.513Z,145.39
2023-03-17T22:50:37.535Z,142.94
2023-03-17T22:54:37.520Z,141.90
2023-03-17T22:58:37.495Z,142.85
2023-03-17T23:02:37.513Z,142.36
2023-03-17T23:06:37.541Z,142.26
2023-03-17T23:10:37.564Z,141.13
2023-03-17T23:14:37.593Z,140.74
2023-03-17T23:18:37.613Z,142.92
2023-03-17T23:22:37.660Z,141.65
2023-03-17T23:26:37.721Z,143.66
2023-03-17T23:30:37.804Z,143.01
2023-03-17T23:34:37.767Z,141.88
2023-03-17T23:38:37.749Z,141.47
2023-03-17T23:42:37.774Z,140.13
2023-03-17T23:46:37.765Z,140.16
2023-03-17T23:50:37.727Z,139.00
2023-03-17T23:54:37.735Z,142.91
2023-03-17T23:58:37.720Z,142.30
